createdAt,value
2022-10-03T00:00:16.876Z,10.26
2022-10-03T00:01:19.580Z,10.17
2022-10-03T00:02:22.415Z,10.15
2022-10-03T00:03:25.237Z,10.12
2022-10-03T00:04:27.712Z,10.17
2022-10-03T00:05:30.152Z,10.18
2022-10-03T00:06:32.926Z,10.16
2022-10-03T00:07:35.365Z,10.07
2022-10-03T00:08:37.809Z,10.05
2022-10-03T00:09:40.279Z,10.12
2022-10-03T00:10:42.935Z,10.15
2022-10-03T00:11:45.425Z,10.12
2022-10-03T00:12:47.880Z,10.07
2022-10-03T00:13:50.322Z,9.98
2022-10-03T00:14:52.806Z,9.97
2022-10-03T00:15:55.286Z,9.96
2022-10-03T00:16:58.006Z,9.97
2022-10-03T00:18:00.477Z,9.98
2022-10-03T00:19:03.889Z,9.92
2022-10-03T00:20:06.728Z,9.86
2022-10-03T00:21:09.164Z,9.91
2022-10-03T00:22:11.711Z,9.89
2022-10-03T00:23:14.153Z,9.90
2022-10-03T00:24:16.598Z,9.95
2022-10-03T00:25:19.065Z,9.89
2022-10-03T00:26:21.732Z,9.84
2022-10-03T00:27:24.174Z,9.80
2022-10-03T00:28:26.693Z,9.83
2022-10-03T00:29:29.181Z,9.82
2022-10-03T00:30:31.875Z,9.77
2022-10-03T00:31:34.399Z,9.77
2022-10-03T00:32:37.174Z,9.75
2022-10-03T00:33:39.634Z,9.68
2022-10-03T00:34:42.081Z,9.68
2022-10-03T00:35:44.563Z,9.71
2022-10-03T00:36:47.203Z,9.65
2022-10-03T00:37:49.749Z,9.57
2022-10-03T00:38:52.189Z,9.57
2022-10-03T00:39:54.644Z,9.59
2022-10-03T00:40:57.351Z,9.61
2022-10-03T00:42:01.222Z,9.61
2022-10-03T00:43:03.657Z,9.64
2022-10-03T00:44:06.129Z,9.60
2022-10-03T00:45:08.595Z,9.58
2022-10-03T00:46:11.908Z,9.68
2022-10-03T00:47:14.524Z,9.62
2022-10-03T00:48:16.964Z,9.62
2022-10-03T00:49:19.431Z,9.62
2022-10-03T00:50:22.181Z,9.66
2022-10-03T00:51:24.665Z,9.71
2022-10-03T00:52:27.357Z,9.64
2022-10-03T00:53:29.926Z,9.60
2022-10-03T00:54:32.365Z,9.49
2022-10-03T00:55:34.915Z,9.55
2022-10-03T00:56:37.775Z,9.47
2022-10-03T00:57:40.218Z,9.47
2022-10-03T00:58:42.660Z,9.45
2022-10-03T00:59:48.006Z,9.51
2022-10-03T01:00:49.673Z,9.47
2022-10-03T01:01:52.220Z,9.48
2022-10-03T01:02:54.740Z,9.46
2022-10-03T01:03:57.160Z,9.46
2022-10-03T01:04:59.597Z,9.51
2022-10-03T01:06:02.044Z,9.46
2022-10-03T01:07:04.513Z,9.46
2022-10-03T01:08:06.959Z,9.50
2022-10-03T01:09:09.397Z,9.47
2022-10-03T01:10:12.082Z,9.39
2022-10-03T01:11:14.518Z,9.35
2022-10-03T01:12:16.993Z,9.34
2022-10-03T01:13:19.562Z,9.35
2022-10-03T01:14:21.999Z,9.37
2022-10-03T01:15:24.446Z,9.34
2022-10-03T01:16:27.151Z,9.29
2022-10-03T01:17:29.690Z,9.34
2022-10-03T01:18:32.136Z,9.33
2022-10-03T01:19:34.601Z,9.36
2022-10-03T01:20:37.122Z,9.29
2022-10-03T01:21:40.575Z,9.28
2022-10-03T01:22:43.529Z,9.26
2022-10-03T01:23:45.975Z,9.23
2022-10-03T01:24:48.410Z,9.22
2022-10-03T01:25:50.854Z,9.30
2022-10-03T01:26:53.500Z,9.24
2022-10-03T01:27:55.995Z,9.27
2022-10-03T01:28:58.509Z,9.24
2022-10-03T01:30:01.173Z,9.28
2022-10-03T01:31:03.664Z,9.24
2022-10-03T01:32:06.164Z,9.14
2022-10-03T01:33:08.653Z,9.21
2022-10-03T01:34:11.102Z,9.10
2022-10-03T01:35:13.541Z,9.18
2022-10-03T01:36:15.986Z,9.21
2022-10-03T01:37:18.421Z,9.18
2022-10-03T01:38:20.914Z,9.15
2022-10-03T01:39:23.481Z,9.18
2022-10-03T01:40:26.023Z,9.19
2022-10-03T01:41:28.697Z,9.09
2022-10-03T01:42:31.146Z,9.09
2022-10-03T01:43:33.621Z,9.04
2022-10-03T01:44:36.060Z,9.05
2022-10-03T01:45:38.835Z,9.09
2022-10-03T01:46:41.463Z,9.02
2022-10-03T01:47:44.163Z,8.98
2022-10-03T01:48:46.630Z,8.94
2022-10-03T01:49:49.079Z,8.96
2022-10-03T01:50:51.823Z,8.98
2022-10-03T01:51:54.263Z,8.96
2022-10-03T01:52:56.700Z,8.96
2022-10-03T01:53:59.176Z,8.95
2022-10-03T01:55:01.618Z,8.94
2022-10-03T01:56:04.299Z,8.97
2022-10-03T01:57:06.761Z,8.96
2022-10-03T01:58:09.208Z,8.93
2022-10-03T01:59:11.672Z,8.93
2022-10-03T02:00:14.621Z,8.97
2022-10-03T02:01:17.288Z,8.91
2022-10-03T02:02:20.263Z,8.87
2022-10-03T02:03:22.956Z,8.87
2022-10-03T02:04:25.444Z,8.90
2022-10-03T02:05:27.913Z,8.90
2022-10-03T02:06:30.664Z,8.89
2022-10-03T02:07:33.103Z,8.93
2022-10-03T02:08:35.541Z,8.95
2022-10-03T02:09:38.026Z,8.91
2022-10-03T02:10:40.665Z,8.90
2022-10-03T02:11:43.137Z,8.95
2022-10-03T02:12:45.644Z,8.89
2022-10-03T02:13:48.087Z,8.86
2022-10-03T02:14:50.561Z,8.87
2022-10-03T02:15:53.091Z,8.78
2022-10-03T02:16:56.079Z,8.77
2022-10-03T02:17:58.520Z,8.74
2022-10-03T02:19:00.956Z,8.76
2022-10-03T02:20:03.446Z,8.73
2022-10-03T02:21:06.182Z,8.68
2022-10-03T02:22:08.612Z,8.70
2022-10-03T02:23:11.046Z,8.66
2022-10-03T02:24:13.485Z,8.59
2022-10-03T02:25:16.051Z,8.62
2022-10-03T02:26:18.892Z,8.64
2022-10-03T02:27:21.323Z,8.59
2022-10-03T02:28:23.803Z,8.62
2022-10-03T02:29:26.600Z,8.60
2022-10-03T02:30:29.271Z,8.58
2022-10-03T02:31:31.765Z,8.54
2022-10-03T02:32:34.257Z,8.51
2022-10-03T02:33:36.723Z,8.51
2022-10-03T02:34:39.156Z,8.51
2022-10-03T02:35:41.657Z,8.45
2022-10-03T02:36:44.312Z,8.34
2022-10-03T02:37:46.740Z,8.31
2022-10-03T02:38:49.198Z,8.28
2022-10-03T02:39:51.651Z,8.27
2022-10-03T02:40:54.417Z,8.31
2022-10-03T02:41:57.156Z,8.29
2022-10-03T02:42:59.638Z,8.32
2022-10-03T02:44:02.083Z,8.32
2022-10-03T02:45:04.546Z,8.33
2022-10-03T02:46:08.243Z,8.36
2022-10-03T02:47:10.741Z,8.39
2022-10-03T02:48:31.406Z,8.37
2022-10-03T02:49:17.530Z,8.38
2022-10-03T02:50:20.162Z,8.41
2022-10-03T02:51:22.670Z,8.41
2022-10-03T02:52:25.100Z,8.37
2022-10-03T02:53:27.533Z,8.39
2022-10-03T02:54:29.966Z,8.36
2022-10-03T02:55:32.403Z,8.35
2022-10-03T02:56:35.078Z,8.32
2022-10-03T02:57:37.541Z,8.38
2022-10-03T02:58:39.973Z,8.38
2022-10-03T02:59:42.407Z,8.37
2022-10-03T03:00:45.201Z,8.37
2022-10-03T03:01:47.942Z,8.36
2022-10-03T03:02:50.598Z,8.38
2022-10-03T03:03:53.058Z,8.39
2022-10-03T03:04:55.492Z,8.41
2022-10-03T03:05:57.930Z,8.44
2022-10-03T03:07:00.513Z,8.41
2022-10-03T03:08:02.957Z,8.47
2022-10-03T03:09:05.395Z,8.53
2022-10-03T03:10:08.530Z,8.49
2022-10-03T03:11:10.965Z,8.45
2022-10-03T03:12:13.422Z,8.45
2022-10-03T03:13:15.854Z,8.43
2022-10-03T03:14:18.291Z,8.46
2022-10-03T03:15:20.728Z,8.47
2022-10-03T03:16:23.303Z,8.51
2022-10-03T03:17:25.887Z,8.43
2022-10-03T03:18:28.340Z,8.38
2022-10-03T03:19:30.783Z,8.39
2022-10-03T03:20:33.661Z,8.41
2022-10-03T03:21:36.096Z,8.38
2022-10-03T03:22:38.794Z,8.42
2022-10-03T03:23:41.226Z,8.38
2022-10-03T03:24:43.661Z,8.46
2022-10-03T03:25:46.101Z,8.46
2022-10-03T03:26:48.837Z,8.38
2022-10-03T03:27:51.411Z,8.36
2022-10-03T03:28:55.810Z,8.34
2022-10-03T03:29:58.349Z,8.31
2022-10-03T03:31:00.983Z,8.40
2022-10-03T03:32:03.530Z,8.38
2022-10-03T03:33:06.406Z,8.39
2022-10-03T03:34:08.855Z,8.37
2022-10-03T03:35:11.329Z,8.36
2022-10-03T03:36:14.082Z,8.27
2022-10-03T03:37:16.525Z,8.31
2022-10-03T03:38:18.985Z,8.31
2022-10-03T03:39:21.465Z,8.26
2022-10-03T03:40:24.095Z,8.34
2022-10-03T03:41:26.534Z,8.39
2022-10-03T03:42:29.074Z,8.34
2022-10-03T03:43:31.545Z,8.28
2022-10-03T03:44:33.968Z,8.27
2022-10-03T03:45:36.437Z,8.30
2022-10-03T03:46:39.144Z,8.29
2022-10-03T03:47:41.617Z,8.29
2022-10-03T03:48:44.074Z,8.32
2022-10-03T03:49:46.512Z,8.33
2022-10-03T03:50:49.246Z,8.31
2022-10-03T03:51:51.712Z,8.26
2022-10-03T03:52:54.153Z,8.30
2022-10-03T03:53:56.627Z,8.25
2022-10-03T03:54:59.059Z,8.26
2022-10-03T03:56:01.879Z,8.27
2022-10-03T03:57:04.318Z,8.28
2022-10-03T03:58:06.802Z,8.38
2022-10-03T03:59:09.277Z,8.39
2022-10-03T04:00:12.315Z,8.39
2022-10-03T04:01:14.820Z,8.44
2022-10-03T04:02:17.401Z,8.43
2022-10-03T04:03:19.984Z,8.38
2022-10-03T04:04:22.475Z,8.33
2022-10-03T04:05:24.922Z,8.37
2022-10-03T04:06:27.463Z,8.33
2022-10-03T04:07:29.903Z,8.30
2022-10-03T04:08:32.343Z,8.38
2022-10-03T04:09:34.800Z,8.41
2022-10-03T04:10:37.435Z,8.40
2022-10-03T04:11:40.184Z,8.42
2022-10-03T04:12:42.839Z,8.41
2022-10-03T04:13:45.299Z,8.44
2022-10-03T04:14:47.794Z,8.35
2022-10-03T04:15:50.230Z,8.43
2022-10-03T04:16:52.891Z,8.43
2022-10-03T04:17:55.402Z,8.39
2022-10-03T04:18:58.140Z,8.31
2022-10-03T04:20:00.645Z,8.27
2022-10-03T04:21:03.216Z,8.23
2022-10-03T04:22:05.733Z,8.17
2022-10-03T04:23:08.165Z,8.12
2022-10-03T04:24:10.634Z,8.15
2022-10-03T04:25:13.121Z,8.15
2022-10-03T04:26:15.663Z,8.17
2022-10-03T04:27:18.346Z,8.14
2022-10-03T04:28:20.819Z,8.09
2022-10-03T04:29:23.339Z,8.08
2022-10-03T04:30:26.125Z,8.14
2022-10-03T04:31:28.626Z,8.11
2022-10-03T04:32:31.114Z,8.10
2022-10-03T04:33:33.560Z,8.17
2022-10-03T04:34:36.063Z,8.11
2022-10-03T04:35:38.507Z,8.20
2022-10-03T04:36:41.363Z,8.18
2022-10-03T04:37:43.808Z,8.11
2022-10-03T04:38:46.243Z,8.07
2022-10-03T04:39:48.686Z,8.12
2022-10-03T04:40:51.575Z,8.20
2022-10-03T04:41:54.010Z,8.27
2022-10-03T04:42:56.559Z,8.27
2022-10-03T04:43:58.996Z,8.32
2022-10-03T04:45:01.464Z,8.24
2022-10-03T04:46:03.987Z,8.16
2022-10-03T04:47:06.694Z,8.10
2022-10-03T04:48:09.159Z,8.17
2022-10-03T04:49:11.604Z,8.22
2022-10-03T04:50:14.353Z,8.20
2022-10-03T04:51:16.840Z,8.29
2022-10-03T04:52:19.286Z,8.38
2022-10-03T04:53:21.749Z,8.33
2022-10-03T04:54:24.229Z,8.28
2022-10-03T04:55:26.723Z,8.35
2022-10-03T04:56:29.301Z,8.39
2022-10-03T04:57:31.746Z,8.39
2022-10-03T04:58:34.296Z,8.44
2022-10-03T04:59:36.739Z,8.47
2022-10-03T05:00:39.560Z,8.52
2022-10-03T05:01:42.453Z,8.52
2022-10-03T05:02:45.153Z,8.54
2022-10-03T05:03:47.610Z,8.57
2022-10-03T05:04:51.904Z,8.58
2022-10-03T05:05:54.415Z,8.61
2022-10-03T05:06:57.064Z,8.64
2022-10-03T05:07:59.511Z,8.70
2022-10-03T05:09:01.959Z,8.61
2022-10-03T05:10:06.614Z,8.59
2022-10-03T05:11:08.869Z,8.64
2022-10-03T05:12:11.379Z,8.55
2022-10-03T05:13:13.947Z,8.59
2022-10-03T05:14:16.388Z,8.63
2022-10-03T05:15:18.863Z,8.72
2022-10-03T05:16:21.687Z,8.69
2022-10-03T05:17:24.255Z,8.83
2022-10-03T05:18:27.231Z,8.85
2022-10-03T05:19:30.022Z,8.77
2022-10-03T05:20:32.658Z,8.83
2022-10-03T05:21:35.352Z,8.96
2022-10-03T05:22:37.857Z,8.96
2022-10-03T05:23:40.304Z,8.99
2022-10-03T05:24:42.745Z,9.24
2022-10-03T05:25:45.183Z,9.14
2022-10-03T05:26:47.725Z,9.19
2022-10-03T05:27:50.278Z,9.22
2022-10-03T05:28:52.766Z,9.30
2022-10-03T05:29:55.204Z,9.38
2022-10-03T05:30:57.856Z,9.44
2022-10-03T05:32:01.194Z,9.44
2022-10-03T05:33:08.311Z,9.45
2022-10-03T05:34:08.203Z,9.48
2022-10-03T05:35:10.653Z,9.49
2022-10-03T05:36:13.353Z,9.60
2022-10-03T05:37:15.853Z,9.53
2022-10-03T05:38:18.350Z,9.61
2022-10-03T05:39:20.801Z,9.68
2022-10-03T05:40:23.373Z,9.81
2022-10-03T05:41:26.633Z,9.88
2022-10-03T05:42:29.172Z,9.95
2022-10-03T05:43:31.690Z,9.96
2022-10-03T05:44:34.446Z,10.02
2022-10-03T05:45:36.923Z,10.08
2022-10-03T05:46:39.656Z,10.04
2022-10-03T05:47:42.441Z,9.97
2022-10-03T05:48:44.983Z,9.95
2022-10-03T05:50:57.604Z,10.00
2022-10-03T05:52:00.049Z,9.88
2022-10-03T05:53:02.494Z,9.89
2022-10-03T05:54:05.079Z,9.95
2022-10-03T05:55:07.525Z,9.95
2022-10-03T05:56:10.522Z,10.01
2022-10-03T05:57:12.994Z,10.02
2022-10-03T05:58:15.458Z,10.10
2022-10-03T05:59:17.929Z,10.02
2022-10-03T06:00:20.472Z,10.02
2022-10-03T06:01:23.216Z,10.06
2022-10-03T06:02:26.038Z,10.12
2022-10-03T06:03:28.981Z,10.19
2022-10-03T06:04:31.561Z,10.24
2022-10-03T06:05:34.015Z,10.24
2022-10-03T06:06:36.550Z,10.23
2022-10-03T06:07:38.992Z,10.26
2022-10-03T06:08:41.438Z,10.32
2022-10-03T06:09:43.955Z,10.33
2022-10-03T06:10:46.605Z,10.36
2022-10-03T06:11:49.052Z,10.46
2022-10-03T06:12:51.498Z,10.57
2022-10-03T06:13:53.946Z,10.63
2022-10-03T06:14:56.426Z,10.68
2022-10-03T06:15:58.902Z,10.70
2022-10-03T06:17:01.719Z,10.74
2022-10-03T06:18:04.174Z,10.89
2022-10-03T06:19:06.614Z,10.87
2022-10-03T06:20:09.690Z,10.92
2022-10-03T06:21:12.172Z,10.87
2022-10-03T06:22:14.619Z,10.91
2022-10-03T06:23:17.067Z,10.95
2022-10-03T06:24:19.678Z,10.84
2022-10-03T06:25:22.175Z,10.85
2022-10-03T06:26:24.867Z,10.91
2022-10-03T06:27:27.323Z,10.85
2022-10-03T06:28:29.845Z,10.86
2022-10-03T06:29:32.359Z,10.80
2022-10-03T06:30:35.062Z,10.83
2022-10-03T06:31:37.578Z,10.82
2022-10-03T06:32:40.045Z,10.76
2022-10-03T06:33:42.566Z,10.77
2022-10-03T06:34:45.017Z,10.75
2022-10-03T06:35:47.490Z,10.81
2022-10-03T06:36:50.227Z,10.74
2022-10-03T06:37:52.671Z,10.76
2022-10-03T06:38:55.278Z,10.69
2022-10-03T06:39:57.875Z,10.70
2022-10-03T06:41:00.378Z,10.60
2022-10-03T06:42:03.021Z,10.57
2022-10-03T06:43:05.465Z,10.49
2022-10-03T06:44:07.900Z,10.45
2022-10-03T06:45:10.358Z,10.45
2022-10-03T06:46:13.211Z,10.49
2022-10-03T06:47:15.691Z,10.51
2022-10-03T06:48:18.133Z,10.49
2022-10-03T06:49:20.571Z,10.51
2022-10-03T06:50:23.413Z,10.60
2022-10-03T06:51:30.368Z,10.71
2022-10-03T06:52:30.261Z,10.71
2022-10-03T06:53:32.732Z,10.73
2022-10-03T06:54:35.177Z,10.72
2022-10-03T06:55:37.624Z,10.90
2022-10-03T06:56:40.409Z,10.92
2022-10-03T06:57:42.848Z,11.03
2022-10-03T06:58:45.287Z,11.04
2022-10-03T06:59:47.726Z,11.08
2022-10-03T07:00:50.512Z,11.14
2022-10-03T07:01:53.109Z,11.05
2022-10-03T07:02:55.897Z,11.13
2022-10-03T07:03:58.453Z,11.12
2022-10-03T07:05:01.224Z,11.15
2022-10-03T07:06:03.762Z,11.16
2022-10-03T07:07:06.250Z,11.16
2022-10-03T07:08:08.693Z,11.20
2022-10-03T07:09:11.132Z,11.20
2022-10-03T07:10:13.779Z,11.15
2022-10-03T07:11:16.307Z,11.08
2022-10-03T07:12:18.971Z,11.15
2022-10-03T07:13:21.433Z,11.14
2022-10-03T07:14:23.873Z,11.21
2022-10-03T07:15:43.593Z,11.21
2022-10-03T07:16:30.833Z,11.25
2022-10-03T07:17:33.362Z,11.33
2022-10-03T07:18:35.806Z,11.38
2022-10-03T07:19:38.248Z,11.49
2022-10-03T07:20:41.122Z,11.50
2022-10-03T07:21:44.066Z,11.48
2022-10-03T07:22:46.589Z,11.56
2022-10-03T07:23:49.035Z,11.65
2022-10-03T07:24:51.482Z,11.68
2022-10-03T07:25:53.978Z,11.70
2022-10-03T07:26:56.533Z,11.70
2022-10-03T07:27:59.037Z,11.73
2022-10-03T07:29:01.588Z,11.62
2022-10-03T07:30:04.232Z,11.75
2022-10-03T07:31:06.736Z,11.82
2022-10-03T07:32:09.678Z,11.72
2022-10-03T07:33:12.161Z,11.79
2022-10-03T07:34:14.613Z,11.69
2022-10-03T07:35:17.066Z,11.81
2022-10-03T07:36:19.606Z,11.80
2022-10-03T07:37:22.084Z,11.79
2022-10-03T07:38:24.578Z,11.78
2022-10-03T07:39:27.026Z,11.87
2022-10-03T07:40:29.717Z,11.90
2022-10-03T07:41:32.200Z,12.01
2022-10-03T07:42:34.643Z,11.98
2022-10-03T07:43:37.151Z,11.92
2022-10-03T07:44:39.594Z,11.97
2022-10-03T07:45:42.129Z,11.96
2022-10-03T07:46:44.866Z,11.97
2022-10-03T07:47:47.536Z,12.06
2022-10-03T07:48:50.006Z,12.12
2022-10-03T07:49:52.446Z,12.08
2022-10-03T07:50:55.494Z,12.13
2022-10-03T07:51:57.973Z,12.23
2022-10-03T07:53:00.412Z,12.25
2022-10-03T07:54:02.962Z,12.29
2022-10-03T07:55:05.417Z,12.33
2022-10-03T07:56:09.643Z,12.33
2022-10-03T07:57:12.615Z,12.40
2022-10-03T07:58:15.053Z,12.46
2022-10-03T07:59:17.523Z,12.50
2022-10-03T08:00:20.780Z,12.42
2022-10-03T08:01:23.220Z,12.48
2022-10-03T08:02:25.791Z,12.55
2022-10-03T08:03:28.388Z,12.51
2022-10-03T08:04:30.969Z,12.43
2022-10-03T08:05:33.414Z,12.46
2022-10-03T08:06:36.152Z,12.49
2022-10-03T08:07:38.621Z,12.50
2022-10-03T08:08:41.069Z,12.48
2022-10-03T08:09:43.542Z,12.46
2022-10-03T08:10:46.173Z,12.46
2022-10-03T08:11:49.150Z,12.51
2022-10-03T08:12:51.584Z,12.56
2022-10-03T08:13:54.020Z,12.61
2022-10-03T08:14:56.581Z,12.55
2022-10-03T08:15:59.313Z,12.43
2022-10-03T08:17:02.164Z,12.42
2022-10-03T08:18:04.619Z,12.36
2022-10-03T08:19:10.480Z,12.39
2022-10-03T08:20:12.415Z,12.32
2022-10-03T08:21:14.884Z,12.41
2022-10-03T08:22:17.423Z,12.41
2022-10-03T08:23:20.061Z,12.28
2022-10-03T08:24:22.499Z,12.32
2022-10-03T08:25:24.986Z,12.31
2022-10-03T08:26:28.023Z,12.27
2022-10-03T08:27:30.460Z,12.22
2022-10-03T08:28:32.957Z,12.25
2022-10-03T08:29:35.746Z,12.26
2022-10-03T08:30:38.438Z,12.16
2022-10-03T08:31:41.264Z,12.01
2022-10-03T08:32:48.395Z,12.03
2022-10-03T08:33:48.489Z,12.07
2022-10-03T08:34:50.955Z,12.11
2022-10-03T08:35:53.470Z,12.06
2022-10-03T08:36:56.008Z,12.18
2022-10-03T08:37:58.456Z,12.17
2022-10-03T08:39:00.946Z,12.26
2022-10-03T08:41:13.803Z,12.68
2022-10-03T08:42:16.245Z,12.69
2022-10-03T08:43:18.724Z,12.89
2022-10-03T08:44:21.470Z,13.11
2022-10-03T08:45:23.915Z,13.20
2022-10-03T08:46:26.611Z,13.28
2022-10-03T08:47:29.191Z,13.37
2022-10-03T08:48:31.630Z,13.47
2022-10-03T08:49:34.079Z,13.58
2022-10-03T08:50:36.819Z,13.58
2022-10-03T08:51:39.658Z,13.62
2022-10-03T08:52:42.507Z,13.57
2022-10-03T08:53:44.950Z,13.63
2022-10-03T08:54:47.447Z,13.65
2022-10-03T08:55:49.931Z,13.42
2022-10-03T08:56:52.763Z,13.45
2022-10-03T08:57:55.229Z,13.38
2022-10-03T08:58:57.681Z,13.38
2022-10-03T09:00:00.180Z,13.39
2022-10-03T09:01:02.623Z,13.40
2022-10-03T09:02:05.183Z,13.42
2022-10-03T09:04:12.338Z,13.29
2022-10-03T09:05:14.819Z,13.40
2022-10-03T09:06:17.590Z,13.50
2022-10-03T09:07:20.676Z,13.43
2022-10-03T09:08:23.426Z,13.60
2022-10-03T09:09:25.865Z,13.55
2022-10-03T09:10:28.511Z,13.50
2022-10-03T09:11:31.098Z,13.57
2022-10-03T09:12:33.589Z,13.50
2022-10-03T09:13:36.059Z,13.70
2022-10-03T09:14:38.501Z,13.77
2022-10-03T09:15:40.970Z,13.94
2022-10-03T09:16:44.001Z,14.05
2022-10-03T09:17:46.882Z,14.09
2022-10-03T09:18:49.425Z,14.15
2022-10-03T09:19:51.983Z,13.99
2022-10-03T09:20:54.536Z,13.98
2022-10-03T09:21:56.978Z,14.04
2022-10-03T09:22:59.506Z,14.06
2022-10-03T09:24:01.960Z,14.08
2022-10-03T09:25:04.397Z,14.03
2022-10-03T09:26:07.257Z,14.04
2022-10-03T09:27:09.703Z,14.09
2022-10-03T09:28:12.284Z,13.88
2022-10-03T09:29:14.982Z,13.78
2022-10-03T09:30:17.797Z,13.72
2022-10-03T09:31:20.388Z,13.79
2022-10-03T09:32:23.053Z,13.90
2022-10-03T09:33:25.540Z,13.95
2022-10-03T09:34:27.996Z,13.81
2022-10-03T09:35:30.447Z,13.90
2022-10-03T09:36:33.097Z,13.94
2022-10-03T09:37:35.539Z,13.91
2022-10-03T09:38:38.033Z,14.12
2022-10-03T09:39:40.876Z,14.26
2022-10-03T09:40:43.424Z,14.38
2022-10-03T09:41:46.071Z,14.43
2022-10-03T09:42:48.537Z,14.60
2022-10-03T09:43:51.004Z,14.75
2022-10-03T09:44:53.488Z,14.86
2022-10-03T09:45:55.934Z,15.02
2022-10-03T09:46:58.532Z,15.06
2022-10-03T09:48:01.023Z,15.15
2022-10-03T09:49:03.488Z,15.26
2022-10-03T09:50:06.246Z,15.36
2022-10-03T09:51:08.696Z,15.20
2022-10-03T09:52:11.150Z,15.34
2022-10-03T09:53:13.596Z,15.37
2022-10-03T09:54:16.118Z,15.56
2022-10-03T09:55:18.604Z,15.71
2022-10-03T09:56:21.349Z,15.65
2022-10-03T09:57:23.788Z,15.75
2022-10-03T09:58:26.230Z,15.75
2022-10-03T09:59:28.714Z,15.78
2022-10-03T10:00:31.431Z,15.86
2022-10-03T10:01:34.150Z,16.01
2022-10-03T10:02:36.696Z,16.06
2022-10-03T10:03:39.246Z,15.82
2022-10-03T10:04:54.986Z,15.89
2022-10-03T10:05:46.266Z,15.85
2022-10-03T10:06:48.904Z,15.74
2022-10-03T10:07:51.353Z,15.81
2022-10-03T10:08:53.794Z,15.87
2022-10-03T10:09:56.281Z,15.76
2022-10-03T10:10:59.045Z,15.68
2022-10-03T10:12:01.491Z,15.78
2022-10-03T10:13:03.941Z,15.73
2022-10-03T10:14:08.013Z,15.72
2022-10-03T10:15:10.799Z,15.72
2022-10-03T10:16:13.657Z,15.74
2022-10-03T10:17:16.301Z,15.76
2022-10-03T10:18:18.782Z,15.74
2022-10-03T10:19:21.238Z,15.67
2022-10-03T10:20:23.916Z,15.64
2022-10-03T10:21:26.366Z,15.70
2022-10-03T10:22:28.997Z,15.63
2022-10-03T10:23:31.455Z,15.56
2022-10-03T10:24:33.905Z,15.56
2022-10-03T10:25:36.381Z,15.60
2022-10-03T10:26:39.023Z,15.55
2022-10-03T10:27:41.665Z,15.64
2022-10-03T10:28:44.132Z,15.68
2022-10-03T10:30:56.821Z,15.77
2022-10-03T10:31:59.482Z,15.67
2022-10-03T10:33:01.926Z,15.74
2022-10-03T10:34:04.365Z,15.54
2022-10-03T10:35:06.813Z,15.60
2022-10-03T10:36:09.588Z,15.66
2022-10-03T10:37:12.076Z,15.64
2022-10-03T10:38:14.520Z,15.53
2022-10-03T10:39:17.038Z,15.54
2022-10-03T10:40:19.644Z,15.49
2022-10-03T10:41:22.143Z,15.57
2022-10-03T10:42:25.003Z,15.66
2022-10-03T10:43:27.451Z,15.73
2022-10-03T10:44:29.900Z,15.82
2022-10-03T10:45:32.342Z,15.87
2022-10-03T10:46:34.989Z,15.81
2022-10-03T10:47:37.475Z,15.94
2022-10-03T10:48:39.942Z,15.87
2022-10-03T10:49:42.388Z,15.87
2022-10-03T10:50:45.311Z,16.06
2022-10-03T10:51:47.809Z,15.82
2022-10-03T10:52:50.264Z,15.70
2022-10-03T10:53:52.727Z,15.50
2022-10-03T10:54:55.180Z,15.61
2022-10-03T10:55:57.623Z,15.63
2022-10-03T10:57:00.132Z,15.63
2022-10-03T10:58:02.588Z,15.24
2022-10-03T10:59:05.035Z,15.26
2022-10-03T11:00:07.791Z,15.15
2022-10-03T11:01:10.275Z,15.23
2022-10-03T11:02:13.245Z,15.21
2022-10-03T11:03:15.720Z,15.15
2022-10-03T11:04:18.208Z,15.01
2022-10-03T11:05:20.703Z,14.96
2022-10-03T11:06:23.182Z,14.97
2022-10-03T11:07:25.678Z,14.84
2022-10-03T11:08:28.124Z,14.89
2022-10-03T11:09:30.565Z,14.83
2022-10-03T11:10:33.306Z,14.89
2022-10-03T11:11:35.791Z,14.81
2022-10-03T11:12:38.262Z,15.03
2022-10-03T11:13:40.775Z,14.96
2022-10-03T11:14:43.553Z,15.09
2022-10-03T11:15:46.032Z,15.21
2022-10-03T11:16:48.782Z,15.28
2022-10-03T11:17:51.477Z,15.35
2022-10-03T11:18:53.932Z,15.49
2022-10-03T11:19:56.373Z,15.57
2022-10-03T11:20:59.027Z,15.71
2022-10-03T11:22:01.669Z,16.01
2022-10-03T11:23:04.949Z,16.30
2022-10-03T11:24:07.756Z,16.63
2022-10-03T11:25:10.233Z,16.96
2022-10-03T11:26:12.785Z,17.21
2022-10-03T11:27:15.222Z,17.52
2022-10-03T11:28:19.040Z,17.74
2022-10-03T11:29:22.062Z,17.83
2022-10-03T11:30:24.652Z,17.69
2022-10-03T11:31:27.156Z,17.69
2022-10-03T11:32:29.642Z,17.83
2022-10-03T11:33:32.167Z,17.87
2022-10-03T11:34:34.613Z,17.96
2022-10-03T11:35:42.148Z,17.96
2022-10-03T11:36:42.095Z,17.66
2022-10-03T11:37:45.146Z,17.63
2022-10-03T11:38:47.698Z,17.58
2022-10-03T11:39:50.145Z,17.53
2022-10-03T11:40:52.804Z,17.34
2022-10-03T11:41:55.287Z,17.06
2022-10-03T11:42:57.748Z,16.92
2022-10-03T11:44:01.904Z,16.64
2022-10-03T11:45:04.642Z,16.58
2022-10-03T11:46:07.222Z,16.44
2022-10-03T11:47:09.739Z,16.18
2022-10-03T11:48:12.243Z,16.22
2022-10-03T11:49:14.729Z,16.13
2022-10-03T11:50:17.478Z,16.14
2022-10-03T11:51:19.950Z,16.04
2022-10-03T11:52:22.386Z,16.17
2022-10-03T11:53:24.953Z,16.21
2022-10-03T11:54:32.202Z,16.16
2022-10-03T11:55:31.809Z,16.31
2022-10-03T11:56:34.474Z,16.30
2022-10-03T11:57:36.939Z,16.20
2022-10-03T11:58:39.403Z,16.14
2022-10-03T11:59:41.891Z,16.17
2022-10-03T12:00:44.434Z,16.20
2022-10-03T12:01:50.825Z,16.06
2022-10-03T12:02:51.559Z,16.05
2022-10-03T12:03:54.337Z,16.01
2022-10-03T12:04:56.875Z,15.89
2022-10-03T12:05:59.364Z,15.99
2022-10-03T12:07:02.011Z,16.09
2022-10-03T12:08:04.478Z,16.12
2022-10-03T12:09:06.929Z,16.15
2022-10-03T12:10:10.461Z,16.23
2022-10-03T12:11:13.070Z,16.33
2022-10-03T12:12:15.745Z,16.45
2022-10-03T12:13:18.189Z,16.19
2022-10-03T12:14:20.635Z,16.23
2022-10-03T12:15:23.223Z,16.23
2022-10-03T12:16:26.375Z,16.22
2022-10-03T12:17:28.876Z,16.22
2022-10-03T12:18:31.332Z,16.24
2022-10-03T12:19:33.821Z,16.31
2022-10-03T12:20:36.512Z,16.33
2022-10-03T12:21:39.239Z,16.33
2022-10-03T12:22:42.417Z,16.48
2022-10-03T12:23:44.854Z,16.43
2022-10-03T12:24:47.315Z,16.41
2022-10-03T12:25:49.811Z,16.45
2022-10-03T12:26:52.488Z,16.31
2022-10-03T12:27:54.948Z,16.28
2022-10-03T12:28:57.475Z,16.45
2022-10-03T12:29:59.945Z,16.66
2022-10-03T12:31:02.531Z,16.76
2022-10-03T12:32:05.002Z,16.97
2022-10-03T12:33:07.428Z,17.11
2022-10-03T12:34:09.885Z,17.15
2022-10-03T12:35:12.350Z,17.30
2022-10-03T12:36:15.244Z,17.42
2022-10-03T12:37:17.792Z,17.21
2022-10-03T12:38:20.231Z,17.40
2022-10-03T12:39:22.676Z,17.35
2022-10-03T12:40:25.326Z,17.45
2022-10-03T12:41:28.011Z,17.59
2022-10-03T12:42:30.453Z,17.54
2022-10-03T12:43:32.901Z,17.34
2022-10-03T12:44:35.390Z,17.53
2022-10-03T12:45:38.027Z,17.50
2022-10-03T12:46:40.550Z,17.61
2022-10-03T12:47:55.422Z,17.57
2022-10-03T12:48:47.753Z,17.45
2022-10-03T12:49:50.190Z,17.37
2022-10-03T12:50:53.191Z,17.48
2022-10-03T12:53:05.836Z,17.59
2022-10-03T12:54:08.321Z,17.70
2022-10-03T12:55:10.764Z,17.68
2022-10-03T12:56:13.982Z,17.72
2022-10-03T12:57:16.556Z,17.69
2022-10-03T12:58:18.987Z,17.56
2022-10-03T12:59:21.447Z,17.62
2022-10-03T13:00:24.015Z,17.53
2022-10-03T13:01:26.532Z,17.38
2022-10-03T13:02:29.372Z,17.29
2022-10-03T13:03:31.878Z,17.29
2022-10-03T13:04:34.355Z,17.34
2022-10-03T13:05:36.831Z,17.28
2022-10-03T13:07:02.424Z,17.43
2022-10-03T13:07:43.815Z,17.28
2022-10-03T13:08:46.260Z,17.32
2022-10-03T13:09:48.734Z,17.36
2022-10-03T13:10:51.277Z,17.42
2022-10-03T13:11:53.731Z,17.31
2022-10-03T13:12:56.192Z,17.39
2022-10-03T13:13:58.653Z,17.36
2022-10-03T13:15:01.110Z,17.27
2022-10-03T13:16:03.624Z,17.23
2022-10-03T13:17:06.142Z,17.29
2022-10-03T13:18:08.614Z,17.11
2022-10-03T13:19:11.069Z,17.10
2022-10-03T13:20:13.829Z,16.82
2022-10-03T13:21:43.842Z,16.58
2022-10-03T13:22:20.643Z,16.50
2022-10-03T13:23:23.122Z,16.55
2022-10-03T13:24:25.569Z,16.62
2022-10-03T13:25:28.015Z,16.39
2022-10-03T13:26:30.809Z,16.20
2022-10-03T13:27:33.347Z,16.14
2022-10-03T13:28:36.205Z,16.04
2022-10-03T13:29:38.840Z,16.03
2022-10-03T13:30:41.393Z,16.02
2022-10-03T13:31:43.798Z,15.92
2022-10-03T13:32:46.226Z,15.99
2022-10-03T13:33:48.733Z,15.99
2022-10-03T13:34:51.220Z,15.82
2022-10-03T13:35:53.663Z,15.69
2022-10-03T13:36:56.209Z,15.69
2022-10-03T13:37:58.752Z,15.50
2022-10-03T13:39:01.242Z,15.73
2022-10-03T13:40:03.881Z,15.70
2022-10-03T13:41:06.365Z,15.80
2022-10-03T13:42:08.808Z,15.95
2022-10-03T13:43:11.269Z,15.88